Current Weather

Chicago/Rockford Intl

Rockford, Illinois (KRFD)

Report from: Friday, February 3, 2023 10:54 PM CST
Current time: Friday, February 3, 2023 11:45 PM CST

Nearby weather
Weather history
Weather forecast

Temperature-14.4°C (6.1°F)
Wind chill-21.5°C (-6.8°F)
Dew point-21.1°C (-6.0°F)
Winds 7 kts (3.6 m/s, 8.1 mph) South-Southeast (150°)
Visibility10 mi. (16.1 km)
Clouds Ceiling: Overcast 4,100 ft. (1,250 m)
Altimeter30.47 in.Hg (1032 mB)
Relative humidity57 %
Density altitude-4,329 ft. (-1,319 m)
Sea-level pressure103.4 kPa (1034 mB, 30.52 in.Hg)
Remarks Automated weather observing station with precipitation discriminator
Flight conditions Visual Meteorological Conditions
Raw dataKRFD 040454Z 15007KT 10SM OVC041 M14/M21 A3047 RMK AO2 SLP336 T11441211
An unhandled exception has occurred. See browser dev tools for details. Reload 🗙